X  Chiuso Dati meteorologici dell'aviazione (METAR)     LIPX Verona-Villafranca Valerio Catullo Airport
Temperatura
13°C Temperatura
6°C Punto di rugiada
63% Umidità



Vento
10 KM/h
6 MPH
3 M/S
5 KTS



160°
SSE
Condizioni attuali

Area Temporale Area Temporale
Pressione 1005.08 (hPa) - 29.68 (inHg)
Visibilità 6 (miglio) - 9.7 (km)
Aeroporto
Codice-Aeroporto LIPX

Posizione: Verona-Villafranca Valerio Catullo Airport
Distanza: 14 (km)

Metar:
LIPX 241420Z 16005KT 120V210 9999 VCTS FEW020CB SCT030 BKN050 13/06 Q1005

Ore: 24-04-2024 14:20 CEST